Time;durP1;ratioP1;P1;durP2;ratioP2;P2;SDS_P1;SDS_P2;PMS_P1;PMS_P2;Temp;Humidity;BMP_temperature;BMP_pressure;BME280_temperature;BME280_humidity;BME280_pressure;Samples;Min_cycle;Max_cycle;Signal;HPM_P1;HPM_P2
2024/03/18 00:00:16;;;;;;;4.80;4.30;;;;;;;4.29;100.00;102092.28;10266708;28;20077;-77
2024/03/18 00:05:13;;;;;;;4.95;4.45;;;;;;;4.34;100.00;102089.66;10271588;28;20077;-75
2024/03/18 00:10:09;;;;;;;4.80;4.30;;;;;;;4.34;100.00;102079.69;10262553;28;20343;-75
2024/03/18 00:15:06;;;;;;;4.60;4.07;;;;;;;4.34;100.00;102079.69;10265518;28;20137;-74
2024/03/18 00:20:10;;;;;;;5.00;3.97;;;;;;;4.15;100.00;102070.09;10271362;28;20080;-74
2024/03/18 00:25:06;;;;;;;4.43;4.03;;;;;;;4.24;100.00;102073.25;10267879;28;20076;-75
2024/03/18 00:30:04;;;;;;;5.97;4.10;;;;;;;4.06;100.00;102068.84;10276229;28;20070;-75
2024/03/18 00:35:00;;;;;;;4.70;4.25;;;;;;;4.00;100.00;102074.16;10272315;28;20049;-74
2024/03/18 00:39:55;;;;;;;4.78;4.00;;;;;;;4.03;100.00;102072.84;10270792;28;20393;-76
2024/03/18 00:44:53;;;;;;;5.85;4.32;;;;;;;3.96;100.00;102072.97;10265794;28;20093;-76
2024/03/18 00:49:49;;;;;;;4.60;4.13;;;;;;;3.96;100.00;102054.03;10265533;28;20076;-75
2024/03/18 00:54:45;;;;;;;4.90;4.30;;;;;;;3.89;100.00;102047.94;10268706;28;20072;-76
2024/03/18 00:59:41;;;;;;;7.07;4.65;;;;;;;3.79;100.00;102045.03;10263003;28;20037;-75
2024/03/18 01:04:37;;;;;;;4.90;4.45;;;;;;;3.80;100.00;102046.69;10262766;28;20497;-76
2024/03/18 01:09:33;;;;;;;4.78;4.10;;;;;;;3.87;100.00;102035.72;10270558;28;20472;-76
2024/03/18 01:14:28;;;;;;;4.43;3.90;;;;;;;3.92;100.00;102039.38;10266929;28;20052;-76
2024/03/18 01:19:24;;;;;;;4.82;4.20;;;;;;;3.86;100.00;102040.31;10263774;28;20045;-77
2024/03/18 01:24:21;;;;;;;5.85;4.38;;;;;;;3.83;100.00;102035.41;10266979;28;20041;-77
2024/03/18 01:29:16;;;;;;;4.68;4.28;;;;;;;3.67;100.00;102046.97;10251847;28;20075;-76
2024/03/18 01:34:12;;;;;;;4.55;4.15;;;;;;;3.54;100.00;102046.16;10265970;28;20530;-77
2024/03/18 01:39:09;;;;;;;4.47;4.05;;;;;;;3.61;100.00;102042.50;10263548;28;20756;-76
2024/03/18 01:44:04;;;;;;;4.53;4.13;;;;;;;3.59;100.00;102051.66;10264875;28;20045;-77
2024/03/18 01:49:00;;;;;;;5.72;4.25;;;;;;;3.43;100.00;102041.59;10265893;28;20037;-76
2024/03/18 01:53:57;;;;;;;4.57;4.18;;;;;;;3.37;100.00;102026.31;10272292;28;20049;-76
2024/03/18 01:58:56;;;;;;;4.65;4.25;;;;;;;3.41;100.00;102022.06;10261206;28;20068;-75
2024/03/18 02:03:52;;;;;;;4.63;4.22;;;;;;;3.34;100.00;102013.25;10270338;28;20056;-75
2024/03/18 02:08:48;;;;;;;7.10;4.93;;;;;;;3.37;100.00;102000.09;10262139;28;20057;-75
2024/03/18 02:13:45;;;;;;;5.07;4.25;;;;;;;3.22;100.00;101994.34;10263776;28;20424;-75
2024/03/18 02:18:41;;;;;;;5.20;4.70;;;;;;;3.15;100.00;101994.47;10269197;28;20064;-75
2024/03/18 02:23:37;;;;;;;5.03;4.63;;;;;;;3.10;100.00;101982.75;10267001;28;20045;-76
2024/03/18 02:28:40;;;;;;;5.22;4.43;;;;;;;3.08;100.00;101980.28;10265851;28;20041;-77
2024/03/18 02:33:36;;;;;;;5.28;4.70;;;;;;;3.06;100.00;101982.38;10270586;28;20048;-77
2024/03/18 02:38:32;;;;;;;14.10;4.47;;;;;;;3.08;100.00;101985.69;10274283;28;20063;-76
2024/03/18 02:43:27;;;;;;;5.05;4.55;;;;;;;2.98;100.00;101979.25;10271152;28;20044;-75
2024/03/18 02:48:24;;;;;;;4.90;4.32;;;;;;;3.06;100.00;101971.56;10280443;28;20127;-75
2024/03/18 02:53:20;;;;;;;5.30;4.72;;;;;;;2.92;100.00;101970.19;10280005;28;20053;-75
2024/03/18 02:58:17;;;;;;;5.60;4.45;;;;;;;2.85;100.00;101961.38;10271002;28;20090;-75
2024/03/18 03:03:13;;;;;;;4.75;4.35;;;;;;;2.95;100.00;101957.03;10260355;28;20079;-75
2024/03/18 03:08:08;;;;;;;5.05;4.55;;;;;;;2.88;100.00;101950.94;10270833;28;20426;-78
2024/03/18 03:13:05;;;;;;;6.45;4.70;;;;;;;2.84;100.00;101946.25;10262119;28;20045;-79
2024/03/18 03:18:00;;;;;;;5.07;4.68;;;;;;;2.74;100.00;101947.66;10275464;28;20119;-78
2024/03/18 03:22:59;;;;;;;4.78;4.38;;;;;;;2.91;100.00;101941.53;10267243;28;20447;-77
2024/03/18 03:27:58;;;;;;;5.18;4.75;;;;;;;2.94;100.00;101938.34;10275298;28;20053;-77
2024/03/18 03:32:53;;;;;;;5.10;4.70;;;;;;;2.96;100.00;101936.25;10275056;28;20068;-78
2024/03/18 03:37:49;;;;;;;5.20;4.80;;;;;;;2.88;100.00;101920.41;10278723;28;20048;-78
2024/03/18 03:42:44;;;;;;;5.30;4.90;;;;;;;2.77;100.00;101929.34;10267029;28;20045;-77
2024/03/18 03:47:40;;;;;;;5.25;4.85;;;;;;;2.81;100.00;101919.69;10280790;28;20505;-76
2024/03/18 03:52:36;;;;;;;5.30;4.80;;;;;;;2.84;100.00;101916.53;10282528;28;20524;-76
2024/03/18 03:57:31;;;;;;;5.70;5.20;;;;;;;2.76;100.00;101916.88;10282288;28;20470;-77
2024/03/18 04:02:27;;;;;;;5.35;4.93;;;;;;;2.90;100.00;101918.25;10277727;28;20128;-77
2024/03/18 04:07:26;;;;;;;5.32;4.82;;;;;;;2.83;100.00;101917.56;10275868;28;20434;-78
2024/03/18 04:12:21;;;;;;;5.53;5.03;;;;;;;2.77;100.00;101907.72;10271516;28;20045;-76
2024/03/18 04:17:17;;;;;;;6.40;4.95;;;;;;;2.77;100.00;101908.53;10277824;28;20504;-76
2024/03/18 04:22:13;;;;;;;6.00;5.50;;;;;;;2.84;100.00;101911.94;10274390;28;20045;-75
2024/03/18 04:27:08;;;;;;;6.13;5.53;;;;;;;2.85;100.00;101910.06;10276724;28;20041;-76
2024/03/18 04:32:05;;;;;;;6.15;5.35;;;;;;;2.82;100.00;101905.13;10275861;28;20029;-74
2024/03/18 04:37:00;;;;;;;8.88;5.50;;;;;;;2.87;100.00;101907.94;10271600;28;20041;-75
2024/03/18 04:41:56;;;;;;;6.65;5.55;;;;;;;2.87;100.00;101899.84;10273086;28;20043;-75
2024/03/18 04:46:51;;;;;;;7.32;5.70;;;;;;;2.76;100.00;101895.28;10280492;28;20041;-75
2024/03/18 04:51:47;;;;;;;8.27;6.18;;;;;;;2.77;100.00;101888.81;10273901;28;20044;-74
2024/03/18 04:56:42;;;;;;;6.93;5.88;;;;;;;2.82;100.00;101888.94;10267965;28;20045;-74
2024/03/18 05:01:38;;;;;;;6.07;5.57;;;;;;;2.79;100.00;101890.22;10261507;28;20049;-74
2024/03/18 05:06:34;;;;;;;7.28;5.55;;;;;;;2.86;100.00;101880.13;10261786;28;20041;-74
2024/03/18 05:11:29;;;;;;;6.45;5.85;;;;;;;2.85;100.00;101873.06;10255239;28;20060;-75
2024/03/18 05:16:27;;;;;;;7.32;6.63;;;;;;;2.92;100.00;101878.34;10256599;28;20063;-73
2024/03/18 05:21:23;;;;;;;6.18;5.68;;;;;;;2.98;100.00;101887.38;10260413;28;20073;-73
2024/03/18 05:26:21;;;;;;;6.55;5.97;;;;;;;3.01;100.00;101887.72;10257338;28;20045;-75
2024/03/18 05:31:16;;;;;;;7.50;6.80;;;;;;;2.98;100.00;101884.69;10263370;28;20048;-74
2024/03/18 05:36:12;;;;;;;6.43;5.90;;;;;;;2.90;100.00;101891.25;10264689;28;20052;-72
2024/03/18 05:41:08;;;;;;;7.90;6.13;;;;;;;2.85;100.00;101878.47;10265472;28;20088;-73
2024/03/18 05:46:04;;;;;;;7.13;6.40;;;;;;;2.92;100.00;101871.06;10263631;28;20121;-75
2024/03/18 05:51:00;;;;;;;8.10;7.30;;;;;;;2.91;100.00;101876.69;10259207;28;20032;-76
2024/03/18 05:55:55;;;;;;;8.50;7.75;;;;;;;2.49;100.00;101874.16;10263300;28;20055;-74
2024/03/18 06:00:51;;;;;;;9.23;8.35;;;;;;;2.93;100.00;101885.41;10264586;28;20109;-76
2024/03/18 06:05:46;;;;;;;9.30;8.40;;;;;;;3.06;100.00;101885.09;10261017;28;20040;-75
2024/03/18 06:10:42;;;;;;;9.02;8.23;;;;;;;2.89;100.00;101884.22;10265231;28;20053;-75
2024/03/18 06:15:37;;;;;;;8.90;8.20;;;;;;;3.01;100.00;101886.91;10267676;28;20419;-73
2024/03/18 06:20:33;;;;;;;8.70;8.00;;;;;;;2.94;100.00;101887.84;10266058;28;20572;-74
2024/03/18 06:30:42;;;;;;;9.98;8.57;;;;;;;3.03;100.00;101880.19;10266490;28;20052;-73
2024/03/18 06:35:39;;;;;;;9.15;8.23;;;;;;;3.03;100.00;101874.78;10258328;28;20123;-75
2024/03/18 06:40:34;;;;;;;9.55;8.55;;;;;;;3.05;100.00;101877.25;10264791;28;20091;-75
2024/03/18 06:45:30;;;;;;;9.10;8.32;;;;;;;3.15;100.00;101872.88;10266723;28;20064;-75
2024/03/18 06:50:26;;;;;;;9.80;8.80;;;;;;;3.20;100.00;101863.22;10265922;28;20063;-74
2024/03/18 06:55:22;;;;;;;9.60;8.70;;;;;;;3.09;100.00;101857.63;10271547;28;20079;-75
2024/03/18 07:00:23;;;;;;;11.73;9.02;;;;;;;3.26;100.00;101854.16;10265495;28;20071;-75
2024/03/18 07:05:20;;;;;;;9.47;8.67;;;;;;;3.40;100.00;101858.22;10262805;28;20129;-76
2024/03/18 07:10:17;;;;;;;10.00;9.10;;;;;;;3.57;100.00;101852.84;10266369;28;20080;-76
2024/03/18 07:15:16;;;;;;;9.40;8.60;;;;;;;3.65;100.00;101859.75;10265686;28;20581;-75
2024/03/18 07:20:12;;;;;;;9.85;8.85;;;;;;;3.52;100.00;101856.28;10270022;28;20072;-75
2024/03/18 07:25:16;;;;;;;8.88;8.00;;;;;;;3.75;100.00;101857.22;10273157;28;20643;-74
2024/03/18 07:30:13;;;;;;;10.38;8.90;;;;;;;3.77;100.00;101846.97;10262662;28;20076;-77
2024/03/18 07:35:14;;;;;;;9.13;8.23;;;;;;;3.99;100.00;101849.75;10272605;28;20088;-75
2024/03/18 07:40:11;;;;;;;9.50;8.50;;;;;;;4.06;100.00;101844.19;10267478;28;20080;-75
2024/03/18 07:45:08;;;;;;;9.35;8.45;;;;;;;4.31;100.00;101841.88;10267844;28;20098;-75
2024/03/18 07:50:04;;;;;;;8.75;7.82;;;;;;;4.31;100.00;101835.66;10273445;28;20476;-76
2024/03/18 07:55:00;;;;;;;9.57;6.95;;;;;;;4.22;100.00;101846.06;10273631;28;20052;-74
2024/03/18 07:59:56;;;;;;;10.05;7.82;;;;;;;4.39;100.00;101855.00;10272168;28;20068;-76
2024/03/18 08:04:55;;;;;;;8.55;7.68;;;;;;;4.65;100.00;101841.81;10271321;28;20738;-75
2024/03/18 08:09:50;;;;;;;9.82;8.05;;;;;;;4.85;100.00;101850.22;10262832;28;20056;-74
2024/03/18 08:14:46;;;;;;;14.82;8.38;;;;;;;4.74;100.00;101845.75;10248358;28;20413;-75
2024/03/18 08:19:41;;;;;;;8.57;7.47;;;;;;;4.71;100.00;101840.84;10271523;28;20033;-75
2024/03/18 08:24:38;;;;;;;9.27;8.25;;;;;;;4.76;100.00;101842.78;10270009;28;20123;-75
2024/03/18 08:29:33;;;;;;;8.35;7.55;;;;;;;4.92;100.00;101841.91;10268384;28;20043;-76
2024/03/18 08:34:29;;;;;;;9.07;8.18;;;;;;;5.13;100.00;101837.53;10270865;28;20053;-75
2024/03/18 08:39:25;;;;;;;9.95;9.05;;;;;;;4.96;100.00;101836.78;10270373;28;20051;-75
2024/03/18 08:44:20;;;;;;;9.50;8.50;;;;;;;5.15;100.00;101840.81;10266125;28;20079;-75
2024/03/18 08:49:19;;;;;;;10.45;9.20;;;;;;;5.26;100.00;101826.28;10264501;28;20566;-74
2024/03/18 08:54:16;;;;;;;10.13;8.93;;;;;;;5.46;100.00;101852.00;10269773;28;20091;-74
2024/03/18 08:59:12;;;;;;;9.93;8.50;;;;;;;5.37;100.00;101839.97;10269774;28;20506;-75
2024/03/18 09:04:09;;;;;;;11.23;8.95;;;;;;;5.64;100.00;101838.06;10270136;28;20501;-75
2024/03/18 09:09:06;;;;;;;9.68;8.52;;;;;;;5.76;100.00;101846.06;10262355;28;20037;-73
2024/03/18 09:14:01;;;;;;;9.63;8.18;;;;;;;5.82;100.00;101833.34;10260074;28;20036;-74
2024/03/18 09:18:57;;;;;;;8.52;7.70;;;;;;;5.99;100.00;101839.50;10270371;28;20572;-75
2024/03/18 09:23:54;;;;;;;8.98;8.07;;;;;;;6.18;100.00;101836.38;10268826;28;20143;-76
2024/03/18 09:28:50;;;;;;;10.20;8.95;;;;;;;6.08;100.00;101843.38;10267549;28;20053;-74
2024/03/18 09:33:45;;;;;;;9.35;8.45;;;;;;;6.13;100.00;101833.59;10266906;28;20045;-75
2024/03/18 09:38:41;;;;;;;15.57;9.20;;;;;;;5.86;100.00;101837.16;10270482;28;20040;-74
2024/03/18 09:43:36;;;;;;;12.55;9.23;;;;;;;5.91;100.00;101837.22;10261388;28;20049;-75
2024/03/18 09:48:32;;;;;;;11.27;9.50;;;;;;;6.22;100.00;101842.91;10266838;28;20485;-75
2024/03/18 09:53:29;;;;;;;10.45;9.55;;;;;;;6.24;100.00;101840.75;10263593;28;20072;-75
2024/03/18 09:58:24;;;;;;;10.98;9.50;;;;;;;6.49;100.00;101843.63;10285278;28;20073;-75
2024/03/18 10:03:20;;;;;;;10.02;9.05;;;;;;;6.35;100.00;101842.44;10267255;28;20741;-75
2024/03/18 10:08:17;;;;;;;10.85;9.18;;;;;;;6.70;100.00;101838.31;10271485;28;20045;-74
2024/03/18 10:13:12;;;;;;;10.27;9.20;;;;;;;6.89;100.00;101842.22;10268731;28;20532;-79
2024/03/18 10:18:11;;;;;;;10.18;9.18;;;;;;;6.91;100.00;101845.47;10269257;28;20037;-74
2024/03/18 10:23:13;;;;;;;10.85;9.52;;;;;;;7.03;100.00;101833.53;10261502;28;20052;-75
2024/03/18 10:28:09;;;;;;;;;;;;;;;7.02;100.00;101837.38;10259588;28;20484;-75
2024/03/18 10:33:09;;;;;;;12.65;9.60;;;;;;;7.07;100.00;101837.38;10259955;28;19928;-75
2024/03/18 10:38:07;;;;;;;10.55;9.45;;;;;;;7.30;100.00;101836.91;10277379;28;20516;-74
2024/03/18 10:43:02;;;;;;;10.77;9.68;;;;;;;7.58;100.00;101837.50;10284021;28;20055;-74
2024/03/18 10:48:02;;;;;;;10.13;8.77;;;;;;;7.75;100.00;101832.63;10271765;28;20080;-76
2024/03/18 10:52:59;;;;;;;10.70;9.70;;;;;;;7.89;100.00;101818.44;10261640;28;20073;-73
2024/03/18 10:57:57;;;;;;;13.73;9.43;;;;;;;8.22;100.00;101826.06;10274313;28;20073;-74
2024/03/18 11:03:10;;;;;;;10.57;9.35;;;;;;;8.25;100.00;101823.88;10276425;28;20077;-73
2024/03/18 11:08:06;;;;;;;10.45;9.38;;;;;;;8.28;100.00;101812.44;10268868;28;20463;-73
2024/03/18 11:13:19;;;;;;;9.90;9.10;;;;;;;8.99;100.00;101812.22;10264776;28;20068;-75
2024/03/18 11:18:19;;;;;;;10.13;9.10;;;;;;;9.13;100.00;101817.06;10288664;28;20071;-76
2024/03/18 11:23:21;;;;;;;11.15;9.38;;;;;;;9.63;100.00;101817.81;10272431;28;20064;-75
2024/03/18 11:28:17;;;;;;;9.90;8.90;;;;;;;9.63;100.00;101820.56;10269416;28;20069;-75
2024/03/18 11:33:13;;;;;;;9.20;8.38;;;;;;;9.74;100.00;101811.19;10261084;28;20074;-76
2024/03/18 11:38:13;;;;;;;10.30;9.30;;;;;;;10.08;100.00;101821.28;10260260;28;20077;-74
2024/03/18 11:43:09;;;;;;;9.88;8.45;;;;;;;9.67;100.00;101821.63;10270351;28;20083;-75
2024/03/18 11:48:07;;;;;;;8.60;7.70;;;;;;;9.52;100.00;101808.09;10268100;28;20037;-75
2024/03/18 11:53:04;;;;;;;8.63;7.80;;;;;;;9.93;100.00;101796.84;10269496;28;20098;-75
2024/03/18 11:57:59;;;;;;;9.10;8.25;;;;;;;10.30;100.00;101801.69;10272745;28;20033;-74
2024/03/18 12:02:55;;;;;;;9.90;7.22;;;;;;;10.32;100.00;101794.81;10260523;28;20053;-75
2024/03/18 12:07:51;;;;;;;8.13;7.30;;;;;;;10.45;100.00;101792.53;10266972;28;20821;-73
2024/03/18 12:12:48;;;;;;;8.30;7.38;;;;;;;10.27;100.00;101783.13;10254638;28;20045;-74
2024/03/18 12:17:45;;;;;;;7.25;6.53;;;;;;;10.45;100.00;101781.59;10259523;28;20044;-74
2024/03/18 12:22:40;;;;;;;8.45;6.95;;;;;;;10.14;100.00;101770.94;10267897;28;20068;-74
2024/03/18 12:33:05;;;;;;;9.25;6.97;;;;;;;10.38;100.00;101753.78;10264434;28;20061;-75
2024/03/18 12:38:02;;;;;;;7.80;7.00;;;;;;;10.58;100.00;101753.53;10271735;28;20049;-73
2024/03/18 12:42:58;;;;;;;7.68;6.68;;;;;;;10.32;100.00;101756.56;10262728;28;20068;-74
2024/03/18 12:47:54;;;;;;;9.30;6.40;;;;;;;10.39;100.00;101752.66;10264959;28;20365;-75
2024/03/18 12:52:51;;;;;;;7.40;5.97;;;;;;;10.50;100.00;101762.38;10269566;28;20535;-75
2024/03/18 12:57:47;;;;;;;8.48;6.43;;;;;;;10.77;100.00;101752.75;10261746;28;20073;-75
2024/03/18 13:02:43;;;;;;;7.40;6.30;;;;;;;10.91;100.00;101750.94;10254593;28;20413;-74
2024/03/18 13:07:40;;;;;;;7.47;6.70;;;;;;;10.88;100.00;101738.63;10263400;28;20128;-78
2024/03/18 13:12:36;;;;;;;7.85;6.32;;;;;;;11.41;100.00;101743.06;10259480;28;20069;-77
2024/03/18 13:17:32;;;;;;;7.07;6.40;;;;;;;11.22;100.00;101745.00;10259661;28;20041;-75
2024/03/18 13:22:28;;;;;;;9.88;6.70;;;;;;;11.55;100.00;101743.91;10261699;28;20517;-73
2024/03/18 13:27:25;;;;;;;8.75;6.85;;;;;;;11.83;100.00;101737.69;10270022;28;20049;-75
2024/03/18 13:32:22;;;;;;;7.80;7.10;;;;;;;12.50;100.00;101729.03;10268499;28;20052;-75
2024/03/18 13:37:17;;;;;;;7.85;6.90;;;;;;;12.33;100.00;101733.22;10274081;28;20036;-75
2024/03/18 13:42:15;;;;;;;8.73;7.72;;;;;;;12.45;100.00;101731.91;10265343;28;20115;-77
2024/03/18 13:47:13;;;;;;;10.65;7.00;;;;;;;11.72;100.00;101742.53;10257011;28;20484;-77
2024/03/18 13:52:14;;;;;;;7.07;6.38;;;;;;;11.76;100.00;101732.63;10259175;28;20048;-74
2024/03/18 13:57:13;;;;;;;9.57;6.90;;;;;;;12.05;100.00;101728.84;10267616;28;20140;-75
2024/03/18 14:02:10;;;;;;;7.40;6.60;;;;;;;12.00;100.00;101721.53;10267403;28;20076;-76
2024/03/18 14:07:06;;;;;;;7.70;6.90;;;;;;;11.90;100.00;101717.03;10253471;28;20083;-74
2024/03/18 14:12:03;;;;;;;8.65;7.10;;;;;;;11.85;100.00;101708.88;10261045;28;20041;-78
2024/03/18 14:17:01;;;;;;;9.30;6.75;;;;;;;12.25;100.00;101716.66;10268966;28;20064;-77
2024/03/18 14:21:58;;;;;;;8.23;6.80;;;;;;;14.34;97.34;101710.78;10261717;28;20096;-77
2024/03/18 14:26:56;;;;;;;7.03;6.43;;;;;;;15.97;82.96;101704.00;10269580;28;20041;-74
2024/03/18 14:31:52;;;;;;;8.73;7.50;;;;;;;16.56;78.26;101705.97;10269781;28;20068;-74
2024/03/18 14:36:47;;;;;;;7.10;6.38;;;;;;;16.66;71.90;101704.75;10274866;28;20464;-74
2024/03/18 14:41:43;;;;;;;9.32;6.55;;;;;;;16.32;73.94;101706.59;10274161;28;20539;-74
2024/03/18 14:46:39;;;;;;;7.80;6.40;;;;;;;13.78;83.99;101715.09;10273941;28;20045;-73
2024/03/18 14:51:34;;;;;;;7.95;7.25;;;;;;;14.34;85.71;101713.53;10270208;28;20037;-75
2024/03/18 14:56:30;;;;;;;7.28;6.50;;;;;;;14.60;84.14;101716.41;10268988;28;20048;-74
2024/03/18 15:01:27;;;;;;;7.40;6.47;;;;;;;13.51;88.52;101719.63;10271093;28;20045;-78
2024/03/18 15:06:23;;;;;;;8.85;6.00;;;;;;;13.46;91.41;101730.75;10268030;28;20540;-76
2024/03/18 15:11:21;;;;;;;7.65;6.85;;;;;;;12.74;91.71;101737.88;10275019;28;20037;-76
2024/03/18 15:16:17;;;;;;;6.72;6.03;;;;;;;13.02;91.88;101729.56;10271396;28;20048;-76
2024/03/18 15:21:13;;;;;;;6.72;6.05;;;;;;;12.65;91.88;101723.25;10273203;28;20069;-76
2024/03/18 15:31:22;;;;;;;7.28;6.20;;;;;;;11.46;99.78;101733.94;10273905;28;20050;-76
2024/03/18 15:36:18;;;;;;;7.00;6.40;;;;;;;10.86;100.00;101726.34;10265228;28;20465;-75
2024/03/18 15:41:14;;;;;;;9.02;6.13;;;;;;;10.83;100.00;101732.44;10268069;28;20044;-77
2024/03/18 15:46:09;;;;;;;7.18;6.47;;;;;;;10.55;100.00;101737.72;10260743;28;20579;-75
2024/03/18 15:51:05;;;;;;;10.65;6.93;;;;;;;10.62;100.00;101727.22;10256988;28;20099;-75
2024/03/18 15:56:03;;;;;;;8.13;7.18;;;;;;;10.47;100.00;101736.44;10269522;28;20130;-76
2024/03/18 16:00:59;;;;;;;7.28;6.60;;;;;;;10.29;100.00;101735.28;10270725;28;20087;-75
2024/03/18 16:05:54;;;;;;;7.63;6.25;;;;;;;10.20;100.00;101737.00;10268043;28;20045;-76
2024/03/18 16:10:55;;;;;;;7.05;6.35;;;;;;;10.24;100.00;101737.25;10273997;28;20508;-76
2024/03/18 16:15:51;;;;;;;6.72;6.03;;;;;;;10.15;100.00;101723.38;10266661;28;20158;-76
2024/03/18 16:20:47;;;;;;;8.45;6.88;;;;;;;10.04;100.00;101727.34;10266726;28;20068;-75
2024/03/18 16:25:43;;;;;;;9.15;8.07;;;;;;;9.45;100.00;101732.78;10264543;28;20048;-75
2024/03/18 16:30:38;;;;;;;7.45;6.70;;;;;;;9.32;100.00;101744.34;10268698;28;20118;-75
2024/03/18 16:35:36;;;;;;;7.38;6.43;;;;;;;9.52;100.00;101756.22;10268331;28;20182;-76
2024/03/18 16:40:35;;;;;;;7.13;6.40;;;;;;;9.52;100.00;101742.59;10277930;28;20076;-76
2024/03/18 16:45:31;;;;;;;7.38;5.95;;;;;;;9.29;100.00;101752.31;10267591;28;20075;-77
2024/03/18 16:50:27;;;;;;;6.85;6.15;;;;;;;9.19;100.00;101736.78;10267196;28;20083;-76
2024/03/18 16:55:24;;;;;;;6.57;5.97;;;;;;;8.98;100.00;101733.38;10255547;28;20175;-80
2024/03/18 17:00:20;;;;;;;7.43;6.07;;;;;;;9.02;100.00;101742.63;10250741;28;20091;-75
2024/03/18 17:05:16;;;;;;;7.22;6.53;;;;;;;8.94;100.00;101738.59;10255850;28;20076;-75
2024/03/18 17:10:14;;;;;;;7.47;6.57;;;;;;;8.83;100.00;101747.94;10271461;28;20045;-73
2024/03/18 17:15:10;;;;;;;7.55;6.43;;;;;;;8.59;100.00;101754.03;10266603;28;20053;-73
2024/03/18 17:20:09;;;;;;;7.32;6.65;;;;;;;8.79;100.00;101752.31;10266455;28;20095;-74
2024/03/18 17:25:07;;;;;;;7.20;6.50;;;;;;;8.71;100.00;101758.38;10261099;28;20049;-75
2024/03/18 17:30:03;;;;;;;7.30;5.95;;;;;;;8.70;100.00;101776.63;10266783;28;20118;-74
2024/03/18 17:34:59;;;;;;;6.78;6.05;;;;;;;8.76;100.00;101771.97;10267599;28;20823;-73
2024/03/18 17:39:54;;;;;;;7.35;6.63;;;;;;;8.39;100.00;101784.06;10262673;28;20401;-75
2024/03/18 17:44:50;;;;;;;6.70;5.97;;;;;;;8.31;100.00;101790.06;10268275;28;20398;-73
2024/03/18 17:49:46;;;;;;;6.93;5.85;;;;;;;8.48;100.00;101787.88;10254594;28;20060;-74
2024/03/18 17:54:45;;;;;;;6.53;5.90;;;;;;;8.23;100.00;101786.00;10256367;28;20068;-75
2024/03/18 17:59:41;;;;;;;6.30;5.70;;;;;;;8.31;100.00;101790.06;10254930;28;20071;-73
2024/03/18 18:04:37;;;;;;;6.22;5.53;;;;;;;8.36;100.00;101800.97;10252218;28;20507;-75
2024/03/18 18:09:33;;;;;;;6.22;5.63;;;;;;;8.18;100.00;101808.63;10253934;28;20044;-74
2024/03/18 18:14:28;;;;;;;6.10;5.43;;;;;;;8.20;100.00;101806.44;10250880;28;20048;-74
2024/03/18 18:19:25;;;;;;;6.75;5.63;;;;;;;8.21;100.00;101813.53;10250040;28;20034;-73
2024/03/18 18:24:22;;;;;;;8.40;6.07;;;;;;;8.21;100.00;101808.09;10251146;28;20481;-74
2024/03/18 18:29:18;;;;;;;8.07;5.60;;;;;;;8.09;100.00;101815.72;10251807;28;20075;-74
2024/03/18 18:34:13;;;;;;;6.47;5.88;;;;;;;8.06;100.00;101819.00;10254804;28;20496;-75
2024/03/18 18:39:13;;;;;;;6.97;6.28;;;;;;;8.06;100.00;101827.19;10259584;28;20186;-76
2024/03/18 18:44:12;;;;;;;7.05;5.63;;;;;;;8.02;100.00;101824.16;10253020;28;20073;-74
2024/03/18 18:49:07;;;;;;;8.02;6.30;;;;;;;7.96;100.00;101838.06;10253364;28;20067;-75
2024/03/18 18:54:03;;;;;;;7.95;5.63;;;;;;;7.97;100.00;101840.50;10246006;28;20037;-73
2024/03/18 18:58:58;;;;;;;7.75;6.10;;;;;;;8.01;100.00;101846.25;10257367;28;20052;-73
2024/03/18 19:03:54;;;;;;;6.38;5.70;;;;;;;8.06;100.00;101854.41;10261789;28;20440;-73
2024/03/18 19:08:49;;;;;;;7.07;5.18;;;;;;;8.08;100.00;101863.13;10258333;28;20452;-76
2024/03/18 19:13:45;;;;;;;7.45;5.57;;;;;;;7.91;100.00;101846.22;10236657;28;20045;-73
2024/03/18 19:18:41;;;;;;;7.43;5.47;;;;;;;7.97;100.00;101850.59;10260884;28;20041;-75
2024/03/18 19:23:36;;;;;;;6.53;5.63;;;;;;;7.80;100.00;101853.59;10252186;28;20048;-73
2024/03/18 19:28:32;;;;;;;5.88;5.03;;;;;;;7.85;100.00;101855.50;10267738;28;20059;-74
2024/03/18 19:33:28;;;;;;;6.32;5.60;;;;;;;7.76;100.00;101868.84;10265793;28;20048;-74
2024/03/18 19:38:24;;;;;;;10.52;5.95;;;;;;;7.70;100.00;101869.91;10267133;28;20085;-75
2024/03/18 19:43:19;;;;;;;8.40;6.10;;;;;;;7.64;100.00;101869.09;10263907;28;20477;-74
2024/03/18 19:48:15;;;;;;;6.30;5.78;;;;;;;7.76;100.00;101872.38;10267312;28;20052;-75
2024/03/18 19:53:10;;;;;;;7.75;5.95;;;;;;;7.57;100.00;101873.97;10266062;28;20041;-73
2024/03/18 19:58:06;;;;;;;6.75;6.07;;;;;;;7.53;100.00;101864.72;10267287;28;20049;-74
2024/03/18 20:03:03;;;;;;;6.45;5.05;;;;;;;7.73;100.00;101872.91;10266721;28;20051;-73
2024/03/18 20:07:58;;;;;;;6.13;5.50;;;;;;;7.68;100.00;101875.63;10268012;28;20416;-74
2024/03/18 20:12:54;;;;;;;6.13;5.53;;;;;;;7.63;100.00;101872.06;10265250;28;20102;-74
2024/03/18 20:17:50;;;;;;;7.72;5.50;;;;;;;7.66;100.00;101872.38;10268608;28;20045;-75
2024/03/18 20:22:46;;;;;;;6.45;5.80;;;;;;;7.68;100.00;101870.19;10270468;28;20060;-76
2024/03/18 20:27:43;;;;;;;8.23;5.10;;;;;;;7.55;100.00;101876.16;10256800;28;20103;-74
2024/03/18 20:32:38;;;;;;;5.93;5.10;;;;;;;7.47;100.00;101879.38;10266553;28;20512;-74
2024/03/18 20:37:35;;;;;;;7.07;5.75;;;;;;;7.44;100.00;101879.94;10262014;28;20037;-75
2024/03/18 20:42:31;;;;;;;5.90;5.40;;;;;;;7.50;100.00;101866.06;10265705;28;20068;-76
2024/03/18 20:47:26;;;;;;;6.85;5.70;;;;;;;7.49;100.00;101877.22;10255159;28;20073;-77
2024/03/18 20:52:22;;;;;;;14.48;5.35;;;;;;;7.38;100.00;101877.19;10255671;28;20033;-72
2024/03/18 20:57:18;;;;;;;7.38;5.03;;;;;;;7.48;100.00;101883.75;10255042;28;20047;-75
2024/03/18 21:02:13;;;;;;;5.70;5.05;;;;;;;7.46;100.00;101889.47;10259261;28;20106;-77
2024/03/18 21:07:12;;;;;;;5.70;5.10;;;;;;;7.46;100.00;101896.81;10256217;28;20044;-76
2024/03/18 21:12:07;;;;;;;7.25;5.05;;;;;;;7.27;100.00;101894.56;10261650;28;20171;-76
2024/03/18 21:17:03;;;;;;;5.70;4.70;;;;;;;7.38;100.00;101893.53;10260771;28;20116;-76
2024/03/18 21:21:59;;;;;;;4.90;4.32;;;;;;;7.34;100.00;101892.41;10263257;28;20124;-76
2024/03/18 21:26:54;;;;;;;5.63;4.72;;;;;;;7.29;100.00;101897.84;10260212;28;20521;-77
2024/03/18 21:31:50;;;;;;;5.70;4.63;;;;;;;7.28;100.00;101898.91;10255883;28;20699;-75
2024/03/18 21:36:46;;;;;;;5.85;4.70;;;;;;;7.12;100.00;101897.22;10259853;28;20048;-76
2024/03/18 21:41:41;;;;;;;6.85;4.70;;;;;;;7.18;100.00;101904.31;10267364;28;20120;-76
2024/03/18 21:46:37;;;;;;;5.70;4.97;;;;;;;6.93;100.00;101903.13;10260023;28;20041;-76
2024/03/18 21:51:32;;;;;;;6.15;4.50;;;;;;;7.16;100.00;101906.50;10264240;28;20057;-79
2024/03/18 21:56:28;;;;;;;5.53;4.40;;;;;;;7.07;100.00;101908.91;10268062;28;20064;-77
2024/03/18 22:01:24;;;;;;;5.88;4.00;;;;;;;7.11;100.00;101909.19;10262795;28;20032;-81
2024/03/18 22:06:20;;;;;;;5.72;3.80;;;;;;;6.90;100.00;101914.53;10263606;28;20071;-77
2024/03/18 22:11:15;;;;;;;5.18;4.68;;;;;;;6.97;100.00;101910.75;10260444;28;20564;-78
2024/03/18 22:16:11;;;;;;;4.72;4.20;;;;;;;6.74;100.00;101916.34;10263386;28;20041;-75
2024/03/18 22:21:06;;;;;;;5.55;4.20;;;;;;;6.81;100.00;101907.94;10261678;28;20552;-75
2024/03/18 22:26:02;;;;;;;6.38;4.38;;;;;;;6.92;100.00;101906.94;10260722;28;20060;-77
2024/03/18 22:30:57;;;;;;;4.50;3.90;;;;;;;6.74;100.00;101899.22;10252398;28;20045;-77
2024/03/18 22:35:53;;;;;;;7.60;4.18;;;;;;;6.84;100.00;101904.69;10264227;28;20131;-77
2024/03/18 22:40:49;;;;;;;4.88;4.38;;;;;;;6.54;100.00;101905.31;10263299;28;20048;-76
2024/03/18 22:45:45;;;;;;;5.53;4.40;;;;;;;6.66;100.00;101902.41;10257717;28;20045;-77
2024/03/18 22:50:41;;;;;;;5.07;4.55;;;;;;;6.63;100.00;101908.38;10267741;28;20099;-76